sensor_id;sensor_type;location;lat;lon;timestamp;temperature;humidity
34776;DHT22;20989;52.566;13.346;2022-10-13T00:02:49;20.80;51.20
34776;DHT22;20989;52.566;13.346;2022-10-13T00:05:51;20.80;51.60
34776;DHT22;20989;52.566;13.346;2022-10-13T00:08:52;20.70;51.80
34776;DHT22;20989;52.566;13.346;2022-10-13T00:11:56;20.70;51.90
34776;DHT22;20989;52.566;13.346;2022-10-13T00:14:57;20.70;51.40
34776;DHT22;20989;52.566;13.346;2022-10-13T00:17:57;20.80;51.30
34776;DHT22;20989;52.566;13.346;2022-10-13T00:20:58;20.70;51.30
34776;DHT22;20989;52.566;13.346;2022-10-13T00:23:59;20.80;51.40
34776;DHT22;20989;52.566;13.346;2022-10-13T00:27:00;20.70;51.40
34776;DHT22;20989;52.566;13.346;2022-10-13T00:30:00;20.80;51.10
34776;DHT22;20989;52.566;13.346;2022-10-13T00:33:01;20.70;51.40
34776;DHT22;20989;52.566;13.346;2022-10-13T00:36:05;20.80;51.50
34776;DHT22;20989;52.566;13.346;2022-10-13T00:39:06;20.70;51.60
34776;DHT22;20989;52.566;13.346;2022-10-13T00:42:10;20.70;51.30
34776;DHT22;20989;52.566;13.346;2022-10-13T00:45:19;20.70;51.70
34776;DHT22;20989;52.566;13.346;2022-10-13T00:48:24;20.70;51.70
34776;DHT22;20989;52.566;13.346;2022-10-13T00:51:28;20.70;51.20
34776;DHT22;20989;52.566;13.346;2022-10-13T00:54:29;20.70;51.50
34776;DHT22;20989;52.566;13.346;2022-10-13T00:57:31;20.70;51.50
34776;DHT22;20989;52.566;13.346;2022-10-13T01:00:33;20.70;51.50
34776;DHT22;20989;52.566;13.346;2022-10-13T01:03:34;20.70;51.70
34776;DHT22;20989;52.566;13.346;2022-10-13T01:06:35;20.70;51.40
34776;DHT22;20989;52.566;13.346;2022-10-13T01:09:36;20.70;51.40
34776;DHT22;20989;52.566;13.346;2022-10-13T01:12:58;20.70;51.30
34776;DHT22;20989;52.566;13.346;2022-10-13T01:16:18;20.70;52.00
34776;DHT22;20989;52.566;13.346;2022-10-13T01:36:48;20.70;51.70
34776;DHT22;20989;52.566;13.346;2022-10-13T01:40:38;20.70;51.90
34776;DHT22;20989;52.566;13.346;2022-10-13T01:43:22;20.70;51.40
34776;DHT22;20989;52.566;13.346;2022-10-13T01:46:31;20.70;51.40
34776;DHT22;20989;52.566;13.346;2022-10-13T01:49:34;20.60;51.90
34776;DHT22;20989;52.566;13.346;2022-10-13T01:52:37;20.70;51.60
34776;DHT22;20989;52.566;13.346;2022-10-13T01:55:49;20.70;51.30
34776;DHT22;20989;52.566;13.346;2022-10-13T01:58:51;20.70;51.30
34776;DHT22;20989;52.566;13.346;2022-10-13T02:02:10;20.70;51.70
34776;DHT22;20989;52.566;13.346;2022-10-13T02:08:45;20.70;51.50
34776;DHT22;20989;52.566;13.346;2022-10-13T02:12:04;20.60;51.40
34776;DHT22;20989;52.566;13.346;2022-10-13T02:15:09;20.70;51.50
34776;DHT22;20989;52.566;13.346;2022-10-13T02:18:14;20.60;51.40
34776;DHT22;20989;52.566;13.346;2022-10-13T02:21:15;20.60;51.30
34776;DHT22;20989;52.566;13.346;2022-10-13T02:24:16;20.60;51.60
34776;DHT22;20989;52.566;13.346;2022-10-13T02:27:17;20.60;51.30
34776;DHT22;20989;52.566;13.346;2022-10-13T02:30:27;20.60;51.40
34776;DHT22;20989;52.566;13.346;2022-10-13T02:33:27;20.60;51.40
34776;DHT22;20989;52.566;13.346;2022-10-13T02:36:28;20.60;51.60
34776;DHT22;20989;52.566;13.346;2022-10-13T02:39:29;20.60;51.50
34776;DHT22;20989;52.566;13.346;2022-10-13T02:42:29;20.60;51.30
34776;DHT22;20989;52.566;13.346;2022-10-13T02:45:30;20.60;51.30
34776;DHT22;20989;52.566;13.346;2022-10-13T02:48:31;20.60;51.40
34776;DHT22;20989;52.566;13.346;2022-10-13T02:51:31;20.60;51.40
34776;DHT22;20989;52.566;13.346;2022-10-13T02:54:32;20.60;51.20
34776;DHT22;20989;52.566;13.346;2022-10-13T02:57:33;20.60;51.60
34776;DHT22;20989;52.566;13.346;2022-10-13T03:00:34;20.60;51.20
34776;DHT22;20989;52.566;13.346;2022-10-13T03:03:34;20.60;51.40
34776;DHT22;20989;52.566;13.346;2022-10-13T03:06:36;20.60;51.20
34776;DHT22;20989;52.566;13.346;2022-10-13T03:09:36;20.60;51.10
34776;DHT22;20989;52.566;13.346;2022-10-13T03:12:37;20.60;51.30
34776;DHT22;20989;52.566;13.346;2022-10-13T03:15:38;20.60;51.20
34776;DHT22;20989;52.566;13.346;2022-10-13T03:18:38;20.60;51.10
34776;DHT22;20989;52.566;13.346;2022-10-13T03:21:39;20.60;51.50
34776;DHT22;20989;52.566;13.346;2022-10-13T03:24:40;20.60;51.80
34776;DHT22;20989;52.566;13.346;2022-10-13T03:27:41;20.60;51.60
34776;DHT22;20989;52.566;13.346;2022-10-13T03:30:42;20.60;51.10
34776;DHT22;20989;52.566;13.346;2022-10-13T03:33:43;20.60;51.00
34776;DHT22;20989;52.566;13.346;2022-10-13T03:36:44;20.60;50.90
34776;DHT22;20989;52.566;13.346;2022-10-13T03:39:45;20.60;51.50
34776;DHT22;20989;52.566;13.346;2022-10-13T03:42:45;20.60;51.30
34776;DHT22;20989;52.566;13.346;2022-10-13T03:45:56;20.60;51.40
34776;DHT22;20989;52.566;13.346;2022-10-13T03:48:58;20.60;51.30
34776;DHT22;20989;52.566;13.346;2022-10-13T03:51:58;20.60;51.10
34776;DHT22;20989;52.566;13.346;2022-10-13T03:54:59;20.60;51.30
34776;DHT22;20989;52.566;13.346;2022-10-13T03:58:00;20.60;51.10
34776;DHT22;20989;52.566;13.346;2022-10-13T04:01:04;20.60;51.50
34776;DHT22;20989;52.566;13.346;2022-10-13T04:04:04;20.60;51.10
34776;DHT22;20989;52.566;13.346;2022-10-13T04:07:07;20.60;51.20
34776;DHT22;20989;52.566;13.346;2022-10-13T04:10:08;20.50;51.70
34776;DHT22;20989;52.566;13.346;2022-10-13T04:13:09;20.50;51.10
34776;DHT22;20989;52.566;13.346;2022-10-13T04:16:15;20.50;50.90
34776;DHT22;20989;52.566;13.346;2022-10-13T04:19:16;20.60;51.50
34776;DHT22;20989;52.566;13.346;2022-10-13T04:22:17;20.50;51.10
34776;DHT22;20989;52.566;13.346;2022-10-13T04:25:17;20.50;51.20
34776;DHT22;20989;52.566;13.346;2022-10-13T04:28:18;20.50;51.20
34776;DHT22;20989;52.566;13.346;2022-10-13T04:31:20;20.60;51.10
34776;DHT22;20989;52.566;13.346;2022-10-13T04:34:24;20.50;51.10
34776;DHT22;20989;52.566;13.346;2022-10-13T04:37:24;20.50;51.20
34776;DHT22;20989;52.566;13.346;2022-10-13T04:40:25;20.50;50.90
34776;DHT22;20989;52.566;13.346;2022-10-13T04:43:26;20.50;51.20
34776;DHT22;20989;52.566;13.346;2022-10-13T04:46:28;20.50;51.20
34776;DHT22;20989;52.566;13.346;2022-10-13T04:49:29;20.50;51.00
34776;DHT22;20989;52.566;13.346;2022-10-13T04:52:29;20.50;51.10
34776;DHT22;20989;52.566;13.346;2022-10-13T04:55:30;20.50;51.10
34776;DHT22;20989;52.566;13.346;2022-10-13T04:58:31;20.50;51.10
34776;DHT22;20989;52.566;13.346;2022-10-13T05:01:33;20.50;51.10
34776;DHT22;20989;52.566;13.346;2022-10-13T05:04:35;20.50;51.40
34776;DHT22;20989;52.566;13.346;2022-10-13T05:07:36;20.50;51.10
34776;DHT22;20989;52.566;13.346;2022-10-13T05:10:37;20.50;51.00
34776;DHT22;20989;52.566;13.346;2022-10-13T05:13:37;20.50;51.20
34776;DHT22;20989;52.566;13.346;2022-10-13T05:16:38;20.50;51.20
34776;DHT22;20989;52.566;13.346;2022-10-13T05:19:39;20.50;51.20
34776;DHT22;20989;52.566;13.346;2022-10-13T05:22:40;20.50;51.00
34776;DHT22;20989;52.566;13.346;2022-10-13T05:25:41;20.50;51.10
34776;DHT22;20989;52.566;13.346;2022-10-13T05:28:42;20.50;51.30
34776;DHT22;20989;52.566;13.346;2022-10-13T05:31:43;20.50;51.20
34776;DHT22;20989;52.566;13.346;2022-10-13T05:34:46;20.50;51.00
34776;DHT22;20989;52.566;13.346;2022-10-13T05:37:46;20.50;51.00
34776;DHT22;20989;52.566;13.346;2022-10-13T05:40:47;20.50;51.00
34776;DHT22;20989;52.566;13.346;2022-10-13T05:43:48;20.50;51.00
34776;DHT22;20989;52.566;13.346;2022-10-13T05:46:50;20.50;51.00
34776;DHT22;20989;52.566;13.346;2022-10-13T05:49:51;20.60;51.20
34776;DHT22;20989;52.566;13.346;2022-10-13T05:52:52;20.70;51.60
34776;DHT22;20989;52.566;13.346;2022-10-13T05:55:54;20.70;51.50
34776;DHT22;20989;52.566;13.346;2022-10-13T05:58:59;20.70;51.20
34776;DHT22;20989;52.566;13.346;2022-10-13T06:02:02;20.80;50.90
34776;DHT22;20989;52.566;13.346;2022-10-13T06:05:05;20.80;51.40
34776;DHT22;20989;52.566;13.346;2022-10-13T06:08:06;20.80;51.00
34776;DHT22;20989;52.566;13.346;2022-10-13T06:11:08;20.80;51.20
34776;DHT22;20989;52.566;13.346;2022-10-13T06:14:09;20.90;50.70
34776;DHT22;20989;52.566;13.346;2022-10-13T06:17:09;20.90;51.30
34776;DHT22;20989;52.566;13.346;2022-10-13T06:20:10;20.90;50.90
34776;DHT22;20989;52.566;13.346;2022-10-13T06:23:11;21.00;51.20
34776;DHT22;20989;52.566;13.346;2022-10-13T06:26:12;21.00;50.90
34776;DHT22;20989;52.566;13.346;2022-10-13T06:29:12;20.90;50.70
34776;DHT22;20989;52.566;13.346;2022-10-13T06:32:13;21.00;50.80
34776;DHT22;20989;52.566;13.346;2022-10-13T06:35:14;21.00;50.50
34776;DHT22;20989;52.566;13.346;2022-10-13T06:38:14;21.00;50.70
34776;DHT22;20989;52.566;13.346;2022-10-13T06:41:15;21.00;50.60
34776;DHT22;20989;52.566;13.346;2022-10-13T06:44:16;21.00;51.20
34776;DHT22;20989;52.566;13.346;2022-10-13T06:47:16;21.00;50.70
34776;DHT22;20989;52.566;13.346;2022-10-13T06:50:17;21.00;50.60
34776;DHT22;20989;52.566;13.346;2022-10-13T06:53:18;21.00;51.00
34776;DHT22;20989;52.566;13.346;2022-10-13T06:56:19;21.00;50.60
34776;DHT22;20989;52.566;13.346;2022-10-13T06:59:20;21.00;51.00
34776;DHT22;20989;52.566;13.346;2022-10-13T07:02:20;21.00;51.20
34776;DHT22;20989;52.566;13.346;2022-10-13T07:05:21;21.00;50.80
34776;DHT22;20989;52.566;13.346;2022-10-13T07:08:22;21.00;51.40
34776;DHT22;20989;52.566;13.346;2022-10-13T07:11:22;21.00;51.50
34776;DHT22;20989;52.566;13.346;2022-10-13T07:14:23;21.00;51.70
34776;DHT22;20989;52.566;13.346;2022-10-13T07:17:24;21.00;51.60
34776;DHT22;20989;52.566;13.346;2022-10-13T07:20:25;21.00;51.40
34776;DHT22;20989;52.566;13.346;2022-10-13T07:23:26;21.00;51.40
34776;DHT22;20989;52.566;13.346;2022-10-13T07:26:27;21.00;50.80
34776;DHT22;20989;52.566;13.346;2022-10-13T07:29:27;21.00;50.50
34776;DHT22;20989;52.566;13.346;2022-10-13T07:32:28;21.10;50.80
34776;DHT22;20989;52.566;13.346;2022-10-13T07:35:28;21.10;50.70
34776;DHT22;20989;52.566;13.346;2022-10-13T07:38:29;21.10;50.70
34776;DHT22;20989;52.566;13.346;2022-10-13T07:41:30;21.00;51.00
34776;DHT22;20989;52.566;13.346;2022-10-13T07:44:31;21.00;50.80
34776;DHT22;20989;52.566;13.346;2022-10-13T07:47:31;21.10;50.70
34776;DHT22;20989;52.566;13.346;2022-10-13T07:50:32;21.10;50.70
34776;DHT22;20989;52.566;13.346;2022-10-13T07:53:33;21.10;51.40
34776;DHT22;20989;52.566;13.346;2022-10-13T07:56:34;21.10;50.80
34776;DHT22;20989;52.566;13.346;2022-10-13T07:59:35;21.10;51.00
34776;DHT22;20989;52.566;13.346;2022-10-13T08:02:36;21.10;51.20
34776;DHT22;20989;52.566;13.346;2022-10-13T08:05:37;21.10;51.70
34776;DHT22;20989;52.566;13.346;2022-10-13T08:08:38;21.10;50.70
34776;DHT22;20989;52.566;13.346;2022-10-13T08:11:40;21.00;48.80
34776;DHT22;20989;52.566;13.346;2022-10-13T08:14:40;21.00;47.30
34776;DHT22;20989;52.566;13.346;2022-10-13T08:17:41;20.90;45.80
34776;DHT22;20989;52.566;13.346;2022-10-13T08:20:44;20.80;46.30
34776;DHT22;20989;52.566;13.346;2022-10-13T08:23:45;20.80;45.40
34776;DHT22;20989;52.566;13.346;2022-10-13T08:26:47;20.90;45.40
34776;DHT22;20989;52.566;13.346;2022-10-13T08:29:48;20.80;48.10
34776;DHT22;20989;52.566;13.346;2022-10-13T08:32:48;20.90;49.10
34776;DHT22;20989;52.566;13.346;2022-10-13T08:35:50;20.90;49.00
34776;DHT22;20989;52.566;13.346;2022-10-13T08:38:51;21.00;49.80
34776;DHT22;20989;52.566;13.346;2022-10-13T08:41:55;21.00;48.30
34776;DHT22;20989;52.566;13.346;2022-10-13T08:45:00;21.00;48.80
34776;DHT22;20989;52.566;13.346;2022-10-13T08:48:09;21.00;48.70
34776;DHT22;20989;52.566;13.346;2022-10-13T08:51:12;21.00;49.40
34776;DHT22;20989;52.566;13.346;2022-10-13T08:54:15;21.10;48.40
34776;DHT22;20989;52.566;13.346;2022-10-13T08:57:19;21.20;48.90
34776;DHT22;20989;52.566;13.346;2022-10-13T09:00:19;21.20;48.80
34776;DHT22;20989;52.566;13.346;2022-10-13T09:03:26;21.20;48.70
34776;DHT22;20989;52.566;13.346;2022-10-13T09:06:34;21.20;49.10
34776;DHT22;20989;52.566;13.346;2022-10-13T09:09:37;21.10;49.10
34776;DHT22;20989;52.566;13.346;2022-10-13T09:12:38;21.20;49.30
34776;DHT22;20989;52.566;13.346;2022-10-13T09:15:43;21.20;49.30
34776;DHT22;20989;52.566;13.346;2022-10-13T09:18:44;21.10;49.30
34776;DHT22;20989;52.566;13.346;2022-10-13T09:21:44;21.10;49.30
34776;DHT22;20989;52.566;13.346;2022-10-13T09:24:45;21.10;49.20
34776;DHT22;20989;52.566;13.346;2022-10-13T09:27:58;21.10;49.50
34776;DHT22;20989;52.566;13.346;2022-10-13T09:31:23;21.10;49.90
34776;DHT22;20989;52.566;13.346;2022-10-13T09:34:24;21.10;49.70
34776;DHT22;20989;52.566;13.346;2022-10-13T09:37:25;21.10;49.90
34776;DHT22;20989;52.566;13.346;2022-10-13T09:40:26;21.10;49.80
34776;DHT22;20989;52.566;13.346;2022-10-13T09:46:57;21.20;50.00
34776;DHT22;20989;52.566;13.346;2022-10-13T09:50:13;21.30;49.80
34776;DHT22;20989;52.566;13.346;2022-10-13T09:53:43;21.30;50.20
34776;DHT22;20989;52.566;13.346;2022-10-13T09:56:49;21.40;49.80
34776;DHT22;20989;52.566;13.346;2022-10-13T10:00:21;21.40;49.90
34776;DHT22;20989;52.566;13.346;2022-10-13T10:03:31;21.30;49.70
34776;DHT22;20989;52.566;13.346;2022-10-13T10:06:33;21.20;50.20
34776;DHT22;20989;52.566;13.346;2022-10-13T10:09:59;21.40;50.00
34776;DHT22;20989;52.566;13.346;2022-10-13T10:13:02;21.40;50.00
34776;DHT22;20989;52.566;13.346;2022-10-13T10:16:07;21.30;50.10
34776;DHT22;20989;52.566;13.346;2022-10-13T10:22:33;21.30;50.10
34776;DHT22;20989;52.566;13.346;2022-10-13T10:28:48;21.40;50.10
34776;DHT22;20989;52.566;13.346;2022-10-13T10:38:49;21.50;50.10
34776;DHT22;20989;52.566;13.346;2022-10-13T10:45:02;21.40;50.30
34776;DHT22;20989;52.566;13.346;2022-10-13T10:48:17;21.50;50.50
34776;DHT22;20989;52.566;13.346;2022-10-13T10:51:27;21.30;50.50
34776;DHT22;20989;52.566;13.346;2022-10-13T10:58:37;21.00;50.30
34776;DHT22;20989;52.566;13.346;2022-10-13T11:01:48;21.00;50.20
34776;DHT22;20989;52.566;13.346;2022-10-13T11:04:52;21.20;49.20
34776;DHT22;20989;52.566;13.346;2022-10-13T11:07:54;21.30;49.30
34776;DHT22;20989;52.566;13.346;2022-10-13T11:14:25;21.50;50.00
34776;DHT22;20989;52.566;13.346;2022-10-13T11:23:43;21.40;49.70
34776;DHT22;20989;52.566;13.346;2022-10-13T11:26:44;21.40;50.00
34776;DHT22;20989;52.566;13.346;2022-10-13T11:32:51;21.40;50.10
34776;DHT22;20989;52.566;13.346;2022-10-13T11:36:08;21.40;50.80
34776;DHT22;20989;52.566;13.346;2022-10-13T11:49:15;21.40;50.20
34776;DHT22;20989;52.566;13.346;2022-10-13T11:55:52;21.40;50.30
34776;DHT22;20989;52.566;13.346;2022-10-13T11:58:53;21.40;50.40
34776;DHT22;20989;52.566;13.346;2022-10-13T12:05:36;21.40;50.60
34776;DHT22;20989;52.566;13.346;2022-10-13T12:08:38;21.30;50.80
34776;DHT22;20989;52.566;13.346;2022-10-13T12:11:39;21.30;50.90
34776;DHT22;20989;52.566;13.346;2022-10-13T12:14:42;21.40;50.70
34776;DHT22;20989;52.566;13.346;2022-10-13T12:17:43;21.40;50.70
34776;DHT22;20989;52.566;13.346;2022-10-13T12:20:51;21.50;50.90
34776;DHT22;20989;52.566;13.346;2022-10-13T12:24:08;21.50;50.80
34776;DHT22;20989;52.566;13.346;2022-10-13T12:27:10;21.40;50.60
34776;DHT22;20989;52.566;13.346;2022-10-13T12:30:33;21.40;50.60
34776;DHT22;20989;52.566;13.346;2022-10-13T12:33:37;21.50;50.70
34776;DHT22;20989;52.566;13.346;2022-10-13T12:36:38;21.40;50.50
34776;DHT22;20989;52.566;13.346;2022-10-13T12:39:39;21.50;50.80
34776;DHT22;20989;52.566;13.346;2022-10-13T12:42:41;21.40;50.70
34776;DHT22;20989;52.566;13.346;2022-10-13T12:45:42;21.40;50.70
34776;DHT22;20989;52.566;13.346;2022-10-13T12:48:43;21.50;50.80
34776;DHT22;20989;52.566;13.346;2022-10-13T12:51:47;21.50;50.80
34776;DHT22;20989;52.566;13.346;2022-10-13T12:54:49;21.50;50.90
34776;DHT22;20989;52.566;13.346;2022-10-13T12:57:50;21.50;51.00
34776;DHT22;20989;52.566;13.346;2022-10-13T13:01:05;21.50;50.90
34776;DHT22;20989;52.566;13.346;2022-10-13T13:07:33;21.40;50.20
34776;DHT22;20989;52.566;13.346;2022-10-13T13:10:34;21.30;50.20
34776;DHT22;20989;52.566;13.346;2022-10-13T13:13:35;21.30;50.70
34776;DHT22;20989;52.566;13.346;2022-10-13T13:16:36;21.20;50.00
34776;DHT22;20989;52.566;13.346;2022-10-13T13:19:37;21.20;49.70
34776;DHT22;20989;52.566;13.346;2022-10-13T13:22:38;21.20;49.70
34776;DHT22;20989;52.566;13.346;2022-10-13T13:25:39;21.20;50.10
34776;DHT22;20989;52.566;13.346;2022-10-13T13:28:45;21.20;49.40
34776;DHT22;20989;52.566;13.346;2022-10-13T13:31:46;21.20;49.10
34776;DHT22;20989;52.566;13.346;2022-10-13T13:34:47;21.10;49.50
34776;DHT22;20989;52.566;13.346;2022-10-13T13:37:49;21.20;49.20
34776;DHT22;20989;52.566;13.346;2022-10-13T13:40:51;21.20;49.40
34776;DHT22;20989;52.566;13.346;2022-10-13T13:43:52;21.20;49.40
34776;DHT22;20989;52.566;13.346;2022-10-13T13:46:53;21.20;49.10
34776;DHT22;20989;52.566;13.346;2022-10-13T13:49:55;21.20;49.50
34776;DHT22;20989;52.566;13.346;2022-10-13T13:52:56;21.20;49.50
34776;DHT22;20989;52.566;13.346;2022-10-13T13:55:57;21.20;49.60
34776;DHT22;20989;52.566;13.346;2022-10-13T13:58:57;21.20;49.70
34776;DHT22;20989;52.566;13.346;2022-10-13T14:01:58;21.20;49.60
34776;DHT22;20989;52.566;13.346;2022-10-13T14:04:59;21.20;49.90
34776;DHT22;20989;52.566;13.346;2022-10-13T14:07:59;21.20;49.90
34776;DHT22;20989;52.566;13.346;2022-10-13T14:11:05;21.20;49.80
34776;DHT22;20989;52.566;13.346;2022-10-13T14:14:05;21.10;50.00
34776;DHT22;20989;52.566;13.346;2022-10-13T14:17:06;21.10;50.10
34776;DHT22;20989;52.566;13.346;2022-10-13T14:20:08;21.20;50.10
34776;DHT22;20989;52.566;13.346;2022-10-13T14:23:09;21.10;50.10
34776;DHT22;20989;52.566;13.346;2022-10-13T14:26:09;21.10;50.20
34776;DHT22;20989;52.566;13.346;2022-10-13T14:29:10;21.10;50.30
34776;DHT22;20989;52.566;13.346;2022-10-13T14:32:11;21.10;50.30
34776;DHT22;20989;52.566;13.346;2022-10-13T14:35:12;21.10;50.40
34776;DHT22;20989;52.566;13.346;2022-10-13T14:38:12;21.10;50.40
34776;DHT22;20989;52.566;13.346;2022-10-13T14:41:14;21.10;50.30
34776;DHT22;20989;52.566;13.346;2022-10-13T14:44:16;21.10;50.40
34776;DHT22;20989;52.566;13.346;2022-10-13T14:47:17;21.10;50.40
34776;DHT22;20989;52.566;13.346;2022-10-13T14:50:18;21.10;50.50
34776;DHT22;20989;52.566;13.346;2022-10-13T14:53:19;21.10;50.50
34776;DHT22;20989;52.566;13.346;2022-10-13T14:56:22;21.10;50.50
34776;DHT22;20989;52.566;13.346;2022-10-13T14:59:23;21.10;50.60
34776;DHT22;20989;52.566;13.346;2022-10-13T15:02:25;21.10;50.60
34776;DHT22;20989;52.566;13.346;2022-10-13T15:05:25;21.10;50.60
34776;DHT22;20989;52.566;13.346;2022-10-13T15:08:26;21.10;50.60
34776;DHT22;20989;52.566;13.346;2022-10-13T15:11:27;21.10;50.70
34776;DHT22;20989;52.566;13.346;2022-10-13T15:14:28;21.10;50.70
34776;DHT22;20989;52.566;13.346;2022-10-13T15:17:29;21.10;50.70
34776;DHT22;20989;52.566;13.346;2022-10-13T15:20:30;21.10;50.80
34776;DHT22;20989;52.566;13.346;2022-10-13T15:23:31;21.10;50.80
34776;DHT22;20989;52.566;13.346;2022-10-13T15:26:32;21.10;50.70
34776;DHT22;20989;52.566;13.346;2022-10-13T15:29:33;21.10;50.80
34776;DHT22;20989;52.566;13.346;2022-10-13T15:32:33;21.10;50.80
34776;DHT22;20989;52.566;13.346;2022-10-13T15:35:35;21.10;50.80
34776;DHT22;20989;52.566;13.346;2022-10-13T15:38:36;21.10;50.80
34776;DHT22;20989;52.566;13.346;2022-10-13T15:41:36;21.10;50.90
34776;DHT22;20989;52.566;13.346;2022-10-13T15:44:37;21.10;50.90
34776;DHT22;20989;52.566;13.346;2022-10-13T15:47:38;21.10;50.90
34776;DHT22;20989;52.566;13.346;2022-10-13T15:50:39;21.10;50.90
34776;DHT22;20989;52.566;13.346;2022-10-13T15:53:42;21.10;50.80
34776;DHT22;20989;52.566;13.346;2022-10-13T15:56:43;21.10;51.00
34776;DHT22;20989;52.566;13.346;2022-10-13T15:59:45;21.10;51.00
34776;DHT22;20989;52.566;13.346;2022-10-13T16:02:48;21.10;50.90
34776;DHT22;20989;52.566;13.346;2022-10-13T16:05:49;21.10;50.90
34776;DHT22;20989;52.566;13.346;2022-10-13T16:08:50;21.10;50.90
34776;DHT22;20989;52.566;13.346;2022-10-13T16:11:52;21.10;51.00
34776;DHT22;20989;52.566;13.346;2022-10-13T16:14:53;21.10;51.00
34776;DHT22;20989;52.566;13.346;2022-10-13T16:17:54;21.10;51.00
34776;DHT22;20989;52.566;13.346;2022-10-13T16:20:55;21.10;51.10
34776;DHT22;20989;52.566;13.346;2022-10-13T16:23:57;21.10;50.90
34776;DHT22;20989;52.566;13.346;2022-10-13T16:26:59;21.00;50.90
34776;DHT22;20989;52.566;13.346;2022-10-13T16:30:00;21.10;51.00
34776;DHT22;20989;52.566;13.346;2022-10-13T16:33:00;21.10;51.00
34776;DHT22;20989;52.566;13.346;2022-10-13T16:36:15;21.10;51.00
34776;DHT22;20989;52.566;13.346;2022-10-13T16:39:16;21.10;51.00
34776;DHT22;20989;52.566;13.346;2022-10-13T16:42:17;21.10;51.00
34776;DHT22;20989;52.566;13.346;2022-10-13T16:45:18;21.10;51.10
34776;DHT22;20989;52.566;13.346;2022-10-13T16:48:19;21.00;50.90
34776;DHT22;20989;52.566;13.346;2022-10-13T16:51:21;21.10;51.50
34776;DHT22;20989;52.566;13.346;2022-10-13T16:54:24;21.00;51.00
34776;DHT22;20989;52.566;13.346;2022-10-13T16:57:25;21.10;51.00
34776;DHT22;20989;52.566;13.346;2022-10-13T17:00:25;21.10;51.00
34776;DHT22;20989;52.566;13.346;2022-10-13T17:03:26;21.10;50.90
34776;DHT22;20989;52.566;13.346;2022-10-13T17:06:27;21.10;51.00
34776;DHT22;20989;52.566;13.346;2022-10-13T17:09:28;21.10;51.00
34776;DHT22;20989;52.566;13.346;2022-10-13T17:12:29;21.10;51.10
34776;DHT22;20989;52.566;13.346;2022-10-13T17:15:30;21.10;51.10
34776;DHT22;20989;52.566;13.346;2022-10-13T17:18:30;21.10;51.00
34776;DHT22;20989;52.566;13.346;2022-10-13T17:21:31;21.10;51.10
34776;DHT22;20989;52.566;13.346;2022-10-13T17:24:32;21.10;51.00
34776;DHT22;20989;52.566;13.346;2022-10-13T17:27:36;21.10;51.10
34776;DHT22;20989;52.566;13.346;2022-10-13T17:30:37;21.10;51.00
34776;DHT22;20989;52.566;13.346;2022-10-13T17:33:39;21.10;51.00
34776;DHT22;20989;52.566;13.346;2022-10-13T17:36:39;21.10;51.10
34776;DHT22;20989;52.566;13.346;2022-10-13T17:39:40;21.10;51.00
34776;DHT22;20989;52.566;13.346;2022-10-13T17:42:41;21.10;51.00
34776;DHT22;20989;52.566;13.346;2022-10-13T17:45:42;21.10;51.00
34776;DHT22;20989;52.566;13.346;2022-10-13T17:48:43;21.10;51.00
34776;DHT22;20989;52.566;13.346;2022-10-13T17:51:44;21.00;50.50
34776;DHT22;20989;52.566;13.346;2022-10-13T17:54:45;21.00;50.80
34776;DHT22;20989;52.566;13.346;2022-10-13T17:57:46;20.90;50.00
34776;DHT22;20989;52.566;13.346;2022-10-13T18:00:47;20.80;48.80
34776;DHT22;20989;52.566;13.346;2022-10-13T18:03:56;20.80;49.10
34776;DHT22;20989;52.566;13.346;2022-10-13T18:06:57;20.70;49.10
34776;DHT22;20989;52.566;13.346;2022-10-13T18:09:58;20.70;49.10
34776;DHT22;20989;52.566;13.346;2022-10-13T18:12:59;20.70;49.10
34776;DHT22;20989;52.566;13.346;2022-10-13T18:16:08;20.60;49.10
34776;DHT22;20989;52.566;13.346;2022-10-13T18:19:09;20.60;49.30
34776;DHT22;20989;52.566;13.346;2022-10-13T18:22:10;20.60;49.50
34776;DHT22;20989;52.566;13.346;2022-10-13T18:25:11;20.70;50.40
34776;DHT22;20989;52.566;13.346;2022-10-13T18:28:11;20.70;50.80
34776;DHT22;20989;52.566;13.346;2022-10-13T18:31:13;20.70;50.60
34776;DHT22;20989;52.566;13.346;2022-10-13T18:34:16;20.70;50.90
34776;DHT22;20989;52.566;13.346;2022-10-13T18:37:16;20.80;50.90
34776;DHT22;20989;52.566;13.346;2022-10-13T18:40:17;20.80;51.00
34776;DHT22;20989;52.566;13.346;2022-10-13T18:43:18;20.70;51.70
34776;DHT22;20989;52.566;13.346;2022-10-13T18:46:19;20.70;51.50
34776;DHT22;20989;52.566;13.346;2022-10-13T18:49:19;20.70;51.60
34776;DHT22;20989;52.566;13.346;2022-10-13T18:52:30;20.70;51.80
34776;DHT22;20989;52.566;13.346;2022-10-13T18:55:30;20.70;51.40
34776;DHT22;20989;52.566;13.346;2022-10-13T18:58:32;20.70;51.80
34776;DHT22;20989;52.566;13.346;2022-10-13T19:01:34;20.70;51.70
34776;DHT22;20989;52.566;13.346;2022-10-13T19:04:35;20.70;51.90
34776;DHT22;20989;52.566;13.346;2022-10-13T19:07:36;20.70;52.10
34776;DHT22;20989;52.566;13.346;2022-10-13T19:10:37;20.70;52.00
34776;DHT22;20989;52.566;13.346;2022-10-13T19:13:37;20.70;52.00
34776;DHT22;20989;52.566;13.346;2022-10-13T19:16:41;20.70;52.20
34776;DHT22;20989;52.566;13.346;2022-10-13T19:19:42;20.70;52.10
34776;DHT22;20989;52.566;13.346;2022-10-13T19:22:45;20.70;52.10
34776;DHT22;20989;52.566;13.346;2022-10-13T19:25:46;20.70;52.40
34776;DHT22;20989;52.566;13.346;2022-10-13T19:28:47;20.70;52.30
34776;DHT22;20989;52.566;13.346;2022-10-13T19:31:47;20.70;52.30
34776;DHT22;20989;52.566;13.346;2022-10-13T19:34:48;20.70;52.30
34776;DHT22;20989;52.566;13.346;2022-10-13T19:37:49;20.70;52.30
34776;DHT22;20989;52.566;13.346;2022-10-13T19:40:49;20.70;52.40
34776;DHT22;20989;52.566;13.346;2022-10-13T19:43:51;20.70;52.40
34776;DHT22;20989;52.566;13.346;2022-10-13T19:46:53;20.70;52.00
34776;DHT22;20989;52.566;13.346;2022-10-13T19:49:54;20.70;52.50
34776;DHT22;20989;52.566;13.346;2022-10-13T19:52:55;20.70;52.40
34776;DHT22;20989;52.566;13.346;2022-10-13T19:55:56;20.70;52.30
34776;DHT22;20989;52.566;13.346;2022-10-13T19:58:57;20.70;52.40
34776;DHT22;20989;52.566;13.346;2022-10-13T20:01:57;20.70;52.30
34776;DHT22;20989;52.566;13.346;2022-10-13T20:04:58;20.70;52.40
34776;DHT22;20989;52.566;13.346;2022-10-13T20:07:59;20.70;52.40
34776;DHT22;20989;52.566;13.346;2022-10-13T20:11:08;20.70;52.50
34776;DHT22;20989;52.566;13.346;2022-10-13T20:14:08;20.70;52.50